Relevés horaires Bruxelles-National (Belgique)


Relevés horaires à Bruxelles-National - Mercredi 04 Mai 2022
Heure UTC1 Température [°C] Vent [km/h] Hum. [%] Pres.4 [hPa] Visi. [Km] Nébu. [octa] Préc.5 [mm] Cond.
2m. Res. Ros. Dir.2 Vit. Moy. Raf.3
23:00 8.9 8.9 5.7 S 3.7 3.7 3.7 80 1020.6(0.8/3h) 25 6/8 -- --
22:00 11.0 11.0 5.5 ONO 1.9 1.9 1.9 69 1020.3(1.0/3h) 25 7/8 -- --
21:00 11.3 11.3 5.9 NNO 0.0 5.6 9.3 69 1020(1.3/3h) 25 7/8 -- --
20:00 12.7 12.7 6.1 NNO 3.7 5.6 7.4 64 1019.7(1.1/3h) 25 7/8 -- --
19:00 13.8 13.8 6.7 NNO 5.6 5.6 9.3 62 1019.2(0.7/3h) 25 7/8 -- --
18:00 14.4 14.4 6.7 N 5.6 11.1 14.8 60 1018.7(0.1/3h) 25 5/8 0/12h
--
17:00 15.6 15.6 6.5 N 7.4 7.4 11.1 55 1018.5(-0.3/3h) 25 3/8 -- --
16:00 16.5 16.5 6.2 NNO 7.4 11.1 14.8 51 1018.5(-0.6/3h) 25 2/8 -- --
15:00 16.6 16.6 5.5 NNO 7.4 7.4 13.0 48 1018.6(-1.0/3h) 25 4/8 -- --
14:00 17.0 17.0 4.4 N 5.6 7.4 13.0 43 1018.8(-1.1/3h) 25 3/8 -- --
13:00 16.6 16.6 4.2 N 3.7 5.6 9.3 44 1019.1(-0.9/3h) 20 2/8 -- --
12:00 15.5 15.5 3.9 NO 3.7 5.6 11.1 46 1019.6(-0.5/3h) 20 2/8 0/6h
--
11:00 13.9 13.9 3.7 NO 5.6 5.6 9.3 50 1020(-0.2/3h) 20 3/8 -- --
10:00 12.9 12.9 3.4 NO 3.7 5.6 9.3 52 1020.1(0.1/3h) 20 3/8 -- --
09:00 11.6 11.6 4.3 NNO 1.9 3.7 5.6 61 1020.2(0.4/3h) 20 2/8 -- --
08:00 10.6 10.6 5.2 N 1.9 1.9 5.6 69 1020.2(0.6/3h) 17 2/8 -- --
07:00 9.1 9.1 5.2 NNO 1.9 1.9 3.7 77 1020.1(0.5/3h) 17 1/8 -- --
06:00 7.5 7.5 4.8 NNO 0.0 3.7 5.6 83 1019.9(0.1/3h) 17 2/8 0/12h
--
05:00 7.4 7.4 4.9 N 1.9 1.9 1.9 84 1019.7(-0.2/3h) 15 4/8 -- --
04:00 7.2 7.2 4.8 N 1.9 3.7 5.6 85 1019.6(-0.5/3h) 15 7/8 -- --
03:00 7.4 7.4 4.8 N 3.7 3.7 5.6 84 1019.8(-0.3/3h) 15 7/8 -- --
02:00 6.8 6.8 4.5 N 1.9 3.7 3.7 85 1020(-0.2/3h) 15 5/8 -- --
01:00 7.1 7.1 4.8 NNO 3.7 3.7 5.6 85 1020.1(0.1/3h) 15 2/8 -- Etat du ciel inchangé
00:00 7.6 7.6 5.3 N 3.7 9.3 14.8 85 1020.1(0.2/3h) 15 2/8 0/6h
0/24h
--

1 Coordinated Universal Time. Actuellement il est 05:00 locale et 03:00 UTC.

2 Le vent souffle depuis la direction indiquée vers la direction oposée.

3 Les rafales max. sont disponible 40 min après l'heure du relevé.

4 Pour les stations d'altitude (plus de 600m) le géopotentiel du niveau le plus proche de la pression obligatoire est indiqué.

5 Les stations disposant d'un diffuseur peuvent indiquer "trace". Cela signifie que des précipitations ont touchés le sol mais que la quantité est inférieure à 0.1 mm.

Récapitulatif de la journée
Température [°C] Vent [km/h] Ensoleillement4 [h] Precipitations totale5 [mm] Pression [Hpa]
Min1 Max.2 Moy.3 Max. Min Max.
6.6 18.1 5.3 14.8 0 h 0 min 0 1018.5 1020.6

1 Température minimale relevée entre 18:00 UTC la veille et 18:00 UTC le jour donné.

2 Température maximale relevée entre 06:00 UTC le jour donné et 06:00 UTC le lendemain.

3 Vent moyen de la journée basé sur les relevés horaires.

4 Ensoleillement en heures relevé entre 06:00 UTC la veille et 06:00 UTC le jour donné.

5 Précipitations totales tombées entre 06:00 UTC la jour donné et 06:00 UTC le lendemain.

Graphiques horaires